Time;durP1;ratioP1;P1;durP2;ratioP2;P2;SDS_P1;SDS_P2;PMS_P1;PMS_P2;Temp;Humidity;BMP_temperature;BMP_pressure;BME280_temperature;BME280_humidity;BME280_pressure;Samples;Min_cycle;Max_cycle;Signal;HPM_P1;HPM_P2
2022/06/21 00:00:45;;;;;;;12.80;5.73;;;18.30;99.90;;;;;;5020952;28;20203;-88
2022/06/21 00:03:17;;;;;;;7.73;5.93;;;18.30;99.90;;;;;;5024873;28;20179;-88
2022/06/21 00:05:45;;;;;;;6.43;5.73;;;18.30;99.90;;;;;;5020320;28;20168;-88
2022/06/21 00:08:18;;;;;;;7.73;5.90;;;18.30;99.90;;;;;;5019526;28;20750;-88
2022/06/21 00:10:45;;;;;;;10.83;5.73;;;18.30;99.90;;;;;;5019952;28;20697;-87
2022/06/21 00:13:17;;;;;;;8.93;6.60;;;18.20;99.90;;;;;;5020086;28;20241;-88
2022/06/21 00:15:46;;;;;;;7.40;5.50;;;18.20;99.90;;;;;;5020703;28;20219;-87
2022/06/21 00:18:14;;;;;;;6.77;5.57;;;18.10;99.90;;;;;;5020515;28;20215;-87
2022/06/21 00:20:41;;;;;;;5.37;4.87;;;18.10;99.90;;;;;;5019216;28;20276;-87
2022/06/21 00:23:15;;;;;;;6.20;5.50;;;18.10;99.90;;;;;;5019645;28;20248;-88
2022/06/21 00:25:41;;;;;;;7.30;5.63;;;18.20;99.90;;;;;;5019550;28;20180;-88
2022/06/21 00:28:08;;;;;;;5.90;5.30;;;18.20;99.90;;;;;;5024768;28;20191;-87
2022/06/21 00:30:33;;;;;;;8.83;6.13;;;18.20;99.90;;;;;;5021302;28;20198;-88
2022/06/21 00:32:59;;;;;;;7.40;5.43;;;18.20;99.90;;;;;;5019784;28;20191;-88
2022/06/21 00:35:26;;;;;;;9.83;5.03;;;18.20;99.90;;;;;;5020445;28;20259;-87
2022/06/21 00:37:53;;;;;;;7.80;5.27;;;18.30;99.90;;;;;;5020931;28;20212;-88
2022/06/21 00:40:33;;;;;;;5.70;5.10;;;18.20;99.90;;;;;;5021215;28;20280;-88
2022/06/21 00:43:01;;;;;;;7.47;5.20;;;18.30;99.90;;;;;;5036779;28;20161;-88
2022/06/21 00:45:34;;;;;;;5.37;4.80;;;18.20;99.90;;;;;;5036813;28;20169;-87
2022/06/21 00:48:09;;;;;;;5.17;4.67;;;18.20;99.90;;;;;;5023682;28;20193;-87
2022/06/21 00:50:40;;;;;;;7.67;5.07;;;18.20;99.90;;;;;;5021682;28;20582;-88
2022/06/21 00:53:18;;;;;;;5.30;4.80;;;18.20;99.90;;;;;;5020372;28;20181;-87
2022/06/21 00:55:59;;;;;;;5.57;4.80;;;18.20;99.90;;;;;;5021772;28;20174;-87
2022/06/21 00:58:26;;;;;;;7.67;4.97;;;18.20;99.90;;;;;;5021026;28;20216;-87
2022/06/21 01:00:51;;;;;;;6.40;4.90;;;18.10;99.90;;;;;;5021056;28;20202;-88
2022/06/21 01:03:22;;;;;;;7.17;5.50;;;18.10;99.90;;;;;;5020808;28;20188;-88
2022/06/21 01:05:50;;;;;;;6.63;4.67;;;18.10;99.90;;;;;;5030591;28;20168;-86
2022/06/21 01:08:19;;;;;;;7.37;5.43;;;18.10;99.90;;;;;;5023790;28;20221;-87
2022/06/21 01:10:48;;;;;;;5.90;4.83;;;18.10;99.90;;;;;;5023589;28;20228;-87
2022/06/21 01:13:19;;;;;;;5.10;4.57;;;18.10;99.90;;;;;;5023979;28;20182;-87
2022/06/21 01:15:47;;;;;;;9.07;5.30;;;18.10;99.90;;;;;;5024457;28;20206;-87
2022/06/21 01:18:17;;;;;;;5.60;4.53;;;18.00;99.90;;;;;;5024013;28;20208;-87
2022/06/21 01:20:51;;;;;;;5.43;4.90;;;18.00;99.90;;;;;;5023214;28;20205;-87
2022/06/21 01:23:25;;;;;;;4.97;4.57;;;18.00;99.90;;;;;;5025339;28;20197;-87
2022/06/21 01:26:24;;;;;;;5.33;4.17;;;18.00;99.90;;;;;;5025673;28;20175;-87
2022/06/21 01:28:51;;;;;;;6.40;4.80;;;18.00;99.90;;;;;;5023532;28;20187;-87
2022/06/21 01:31:17;;;;;;;5.43;4.93;;;18.00;99.90;;;;;;5023733;28;20287;-87
2022/06/21 01:33:43;;;;;;;7.70;4.87;;;18.00;99.90;;;;;;5023459;28;20217;-87
2022/06/21 01:36:23;;;;;;;6.30;4.73;;;17.90;99.90;;;;;;5025588;28;20184;-87
2022/06/21 01:39:03;;;;;;;5.63;4.77;;;17.90;99.90;;;;;;5038436;28;20225;-88
2022/06/21 01:41:44;;;;;;;5.07;4.30;;;17.90;99.90;;;;;;5034895;28;20223;-88
2022/06/21 01:44:21;;;;;;;6.43;4.50;;;17.90;99.90;;;;;;5025870;28;20177;-87
2022/06/21 01:46:47;;;;;;;8.00;4.13;;;17.90;99.90;;;;;;5024751;28;20177;-87
2022/06/21 01:49:21;;;;;;;7.07;4.40;;;17.70;99.90;;;;;;5024433;28;20201;-87
2022/06/21 01:52:00;;;;;;;5.63;4.40;;;17.60;99.90;;;;;;5024608;28;20177;-88
2022/06/21 01:54:30;;;;;;;4.37;3.90;;;17.50;99.90;;;;;;5029378;28;20228;-87
2022/06/21 01:56:56;;;;;;;5.70;4.00;;;17.40;99.90;;;;;;5025290;28;20182;-87
2022/06/21 01:59:33;;;;;;;5.77;4.10;;;17.30;99.90;;;;;;5024904;28;20279;-87
2022/06/21 02:02:02;;;;;;;4.23;3.60;;;17.30;99.90;;;;;;5027164;28;20171;-87
2022/06/21 02:04:36;;;;;;;4.47;3.60;;;17.20;99.90;;;;;;5024720;28;20180;-87
2022/06/21 02:07:05;;;;;;;4.80;3.40;;;17.10;99.90;;;;;;5023347;28;20199;-87
2022/06/21 02:09:39;;;;;;;3.40;3.10;;;17.10;99.90;;;;;;5024010;28;20200;-87
2022/06/21 02:12:10;;;;;;;4.00;2.87;;;17.00;99.90;;;;;;5023577;28;20540;-87
2022/06/21 02:14:40;;;;;;;4.90;3.77;;;16.90;99.90;;;;;;5023540;28;20204;-87
2022/06/21 02:17:22;;;;;;;5.03;3.13;;;16.80;99.90;;;;;;5024025;28;20638;-87
2022/06/21 02:20:02;;;;;;;4.50;2.70;;;16.70;99.90;;;;;;5030498;28;20225;-87
2022/06/21 02:22:30;;;;;;;4.03;3.10;;;16.70;99.90;;;;;;5037172;28;20168;-87
2022/06/21 02:24:56;;;;;;;4.50;3.23;;;16.60;99.90;;;;;;5031938;28;20168;-86
2022/06/21 02:27:25;;;;;;;5.53;2.73;;;16.60;99.90;;;;;;5022481;28;20198;-87
2022/06/21 02:29:54;;;;;;;4.27;2.93;;;16.50;99.90;;;;;;5021531;28;20263;-87
2022/06/21 02:32:40;;;;;;;5.90;3.03;;;16.50;99.90;;;;;;5023481;28;20190;-88
2022/06/21 02:35:27;;;;;;;4.43;2.70;;;16.50;99.90;;;;;;5023141;28;20544;-87
2022/06/21 02:37:55;;;;;;;3.23;2.70;;;16.50;99.90;;;;;;5022067;28;20228;-88
2022/06/21 02:40:27;;;;;;;3.10;2.80;;;16.40;99.90;;;;;;5023726;28;20207;-87
2022/06/21 02:42:59;;;;;;;6.70;3.10;;;16.40;99.90;;;;;;5022838;28;20177;-87
2022/06/21 02:45:47;;;;;;;3.30;3.03;;;16.40;99.90;;;;;;5030028;28;20203;-87
2022/06/21 02:48:19;;;;;;;3.53;2.97;;;16.40;99.90;;;;;;5022439;28;20193;-87
2022/06/21 02:50:56;;;;;;;4.23;3.17;;;16.40;99.90;;;;;;5023513;28;20638;-87
2022/06/21 02:53:30;;;;;;;3.20;2.90;;;16.40;99.90;;;;;;5022349;28;20599;-87
2022/06/21 02:56:07;;;;;;;3.83;2.60;;;16.40;99.90;;;;;;5022430;28;20185;-88
2022/06/21 02:58:38;;;;;;;3.80;3.00;;;16.30;99.90;;;;;;5024150;28;20626;-87
2022/06/21 03:01:11;;;;;;;4.37;3.13;;;16.30;99.90;;;;;;5027877;28;20694;-87
2022/06/21 03:03:37;;;;;;;3.33;3.03;;;16.30;99.90;;;;;;5022650;28;20193;-87
2022/06/21 03:06:08;;;;;;;3.10;2.53;;;16.20;99.90;;;;;;5022712;28;20181;-87
2022/06/21 03:08:35;;;;;;;6.03;3.03;;;16.30;99.90;;;;;;5022382;28;20198;-88
2022/06/21 03:11:01;;;;;;;4.67;2.87;;;16.20;99.90;;;;;;5029456;28;20213;-87
2022/06/21 03:13:35;;;;;;;3.47;2.70;;;16.30;99.90;;;;;;5032355;28;20191;-87
2022/06/21 03:16:08;;;;;;;5.27;2.67;;;16.30;99.90;;;;;;5020574;28;20200;-88
2022/06/21 03:18:44;;;;;;;3.47;2.80;;;16.40;99.90;;;;;;5020694;28;20199;-88
2022/06/21 03:21:13;;;;;;;3.33;2.70;;;16.40;99.90;;;;;;5020920;28;20218;-88
2022/06/21 03:23:42;;;;;;;4.93;2.50;;;16.50;99.90;;;;;;5020443;28;20186;-88
2022/06/21 03:26:08;;;;;;;2.83;2.10;;;16.40;99.90;;;;;;5020463;28;20180;-88
2022/06/21 03:28:41;;;;;;;4.47;2.30;;;16.40;99.90;;;;;;5020040;28;20245;-88
2022/06/21 03:31:22;;;;;;;2.60;2.40;;;16.40;99.90;;;;;;5020133;28;20235;-88
2022/06/21 03:33:52;;;;;;;3.30;2.40;;;16.30;99.90;;;;;;5020518;28;20279;-88
2022/06/21 03:36:25;;;;;;;4.20;2.57;;;16.20;99.90;;;;;;5020090;28;20276;-88
2022/06/21 03:39:03;;;;;;;3.23;2.30;;;16.20;99.90;;;;;;5020437;28;20575;-88
2022/06/21 03:41:45;;;;;;;2.20;2.00;;;16.10;99.90;;;;;;5020485;28;20222;-88
2022/06/21 03:44:25;;;;;;;4.93;2.30;;;16.00;99.90;;;;;;5023603;28;20171;-89
2022/06/21 03:46:57;;;;;;;5.10;2.10;;;16.00;99.90;;;;;;5035265;28;20164;-87
2022/06/21 03:49:59;;;;;;;3.40;2.30;;;16.00;99.90;;;;;;5035630;28;20205;-89
2022/06/21 03:52:41;;;;;;;4.57;2.20;;;16.00;99.90;;;;;;5018412;28;20197;-89
2022/06/21 03:55:08;;;;;;;4.43;2.33;;;16.10;99.90;;;;;;5020182;28;20169;-89
2022/06/21 03:57:35;;;;;;;2.87;2.30;;;16.10;99.90;;;;;;5027726;28;20186;-88
2022/06/21 04:00:06;;;;;;;3.23;2.37;;;16.10;99.90;;;;;;5019132;28;20241;-89
2022/06/21 04:02:46;;;;;;;3.47;2.40;;;16.10;99.90;;;;;;5018224;28;20180;-88
2022/06/21 04:05:34;;;;;;;3.47;2.50;;;16.10;99.90;;;;;;5021257;28;20180;-88
2022/06/21 04:08:16;;;;;;;2.93;2.10;;;16.10;99.90;;;;;;5019627;28;20194;-89
2022/06/21 04:10:51;;;;;;;3.10;2.57;;;16.10;99.90;;;;;;5019538;28;20205;-89
2022/06/21 04:13:34;;;;;;;2.70;2.30;;;16.00;99.90;;;;;;5018651;28;20582;-89
2022/06/21 04:16:08;;;;;;;2.20;2.00;;;16.10;99.90;;;;;;5018501;28;20258;-88
2022/06/21 04:19:00;;;;;;;3.07;2.50;;;16.10;99.90;;;;;;5019393;28;20626;-88
2022/06/21 04:21:37;;;;;;;5.43;2.40;;;16.10;99.90;;;;;;5018580;28;20254;-89
2022/06/21 04:24:10;;;;;;;2.93;2.40;;;16.10;99.90;;;;;;5027865;28;20274;-88
2022/06/21 04:26:46;;;;;;;3.97;2.20;;;16.20;99.90;;;;;;5016105;28;20529;-89
2022/06/21 04:29:27;;;;;;;4.27;2.90;;;16.20;99.90;;;;;;5019681;28;20196;-88
2022/06/21 04:32:26;;;;;;;2.53;2.33;;;16.20;99.90;;;;;;5020801;28;20176;-88
2022/06/21 04:35:08;;;;;;;3.10;2.80;;;16.20;99.90;;;;;;5024135;28;20677;-88
2022/06/21 04:37:45;;;;;;;3.73;2.17;;;16.20;99.90;;;;;;5018993;28;20174;-88
2022/06/21 04:40:32;;;;;;;6.73;2.87;;;16.20;99.90;;;;;;5020704;28;20231;-88
2022/06/21 04:43:11;;;;;;;3.27;2.90;;;16.20;99.90;;;;;;5021748;28;20164;-88
2022/06/21 04:45:50;;;;;;;2.80;2.60;;;16.20;99.90;;;;;;5020724;28;20183;-88
2022/06/21 04:48:35;;;;;;;3.63;2.80;;;16.30;99.90;;;;;;5020212;28;20255;-88
2022/06/21 04:51:15;;;;;;;2.60;2.40;;;16.30;99.90;;;;;;5021019;28;20210;-84
2022/06/21 04:53:58;;;;;;;5.47;2.30;;;16.30;99.90;;;;;;5021648;28;20199;-84
2022/06/21 04:56:30;;;;;;;3.27;2.40;;;16.20;99.90;;;;;;5020199;28;20259;-84
2022/06/21 04:58:56;;;;;;;2.80;2.50;;;16.20;99.90;;;;;;5021795;28;20199;-84
2022/06/21 05:01:37;;;;;;;3.63;2.80;;;16.20;99.90;;;;;;5020875;28;20242;-82
2022/06/21 05:04:11;;;;;;;4.40;2.70;;;16.10;99.90;;;;;;5021589;28;20156;-83
2022/06/21 05:06:38;;;;;;;3.73;2.63;;;16.10;99.90;;;;;;5020396;28;20174;-82
2022/06/21 05:09:05;;;;;;;3.43;2.40;;;16.20;99.90;;;;;;5020388;28;20198;-83
2022/06/21 05:11:31;;;;;;;3.60;3.00;;;16.20;99.90;;;;;;5021551;28;20182;-84
2022/06/21 05:13:59;;;;;;;3.43;2.80;;;16.30;99.90;;;;;;5021581;28;20179;-83
2022/06/21 05:16:34;;;;;;;4.37;2.40;;;16.30;99.90;;;;;;5022955;28;20194;-83
2022/06/21 05:19:14;;;;;;;2.70;2.50;;;16.40;99.90;;;;;;5023095;28;20198;-84
2022/06/21 05:21:53;;;;;;;2.63;2.37;;;16.40;99.90;;;;;;5022900;28;20170;-86
2022/06/21 05:24:19;;;;;;;4.93;2.77;;;16.40;99.90;;;;;;5023494;28;20163;-85
2022/06/21 05:27:09;;;;;;;4.27;2.70;;;16.50;99.90;;;;;;5024604;28;20187;-85
2022/06/21 05:29:55;;;;;;;2.73;2.30;;;16.50;99.90;;;;;;5026209;28;20195;-83
2022/06/21 05:32:27;;;;;;;3.23;2.87;;;16.50;99.90;;;;;;5025074;28;20529;-82
2022/06/21 05:34:57;;;;;;;3.57;2.70;;;16.50;99.90;;;;;;5029519;28;20171;-85
2022/06/21 05:37:34;;;;;;;8.47;3.33;;;16.50;99.90;;;;;;5029437;28;20163;-83
2022/06/21 05:40:23;;;;;;;3.50;2.80;;;16.40;99.90;;;;;;5020459;28;20371;-84
2022/06/21 05:42:49;;;;;;;7.43;2.70;;;16.40;99.90;;;;;;5017861;28;20165;-84
2022/06/21 05:45:16;;;;;;;4.97;2.50;;;16.40;99.90;;;;;;5017176;28;20241;-84
2022/06/21 05:47:59;;;;;;;2.93;2.47;;;16.50;99.90;;;;;;5017947;28;20182;-84
2022/06/21 05:50:32;;;;;;;8.53;2.80;;;16.50;99.90;;;;;;5016378;28;20256;-86
2022/06/21 05:53:09;;;;;;;5.20;2.57;;;16.50;99.90;;;;;;5017866;28;20157;-84
2022/06/21 05:55:40;;;;;;;2.73;2.53;;;16.60;99.90;;;;;;5032185;28;20181;-84
2022/06/21 05:58:18;;;;;;;3.03;2.43;;;16.60;99.90;;;;;;5040051;28;20218;-84
2022/06/21 06:01:09;;;;;;;3.00;2.70;;;16.70;99.90;;;;;;5023106;28;20202;-84
2022/06/21 06:03:59;;;;;;;4.70;2.70;;;16.80;99.90;;;;;;5018173;28;20544;-82
2022/06/21 06:06:29;;;;;;;7.07;2.80;;;16.80;99.90;;;;;;5018732;28;20176;-83
2022/06/21 06:09:03;;;;;;;4.57;3.20;;;17.00;99.90;;;;;;5020819;28;20621;-85
2022/06/21 06:11:58;;;;;;;5.57;2.70;;;17.00;99.90;;;;;;5020949;28;20569;-84
2022/06/21 06:14:31;;;;;;;3.13;2.73;;;17.10;99.90;;;;;;5017923;28;20222;-86
2022/06/21 06:16:59;;;;;;;6.13;3.00;;;17.30;99.90;;;;;;5019480;28;20167;-87
2022/06/21 06:19:34;;;;;;;4.63;3.20;;;17.30;99.90;;;;;;5021403;28;20226;-87
2022/06/21 06:22:06;;;;;;;7.37;2.50;;;17.30;99.90;;;;;;5021255;28;20167;-87
2022/06/21 06:24:50;;;;;;;3.43;2.73;;;17.40;99.90;;;;;;5020924;28;20171;-87
2022/06/21 06:27:46;;;;;;;5.07;2.70;;;17.40;99.90;;;;;;5020497;28;20198;-87
2022/06/21 06:30:19;;;;;;;4.30;3.17;;;17.50;99.90;;;;;;5024132;28;20585;-87
2022/06/21 06:32:57;;;;;;;5.60;2.80;;;17.50;99.90;;;;;;5020497;28;20167;-87
2022/06/21 06:35:25;;;;;;;6.20;2.90;;;17.60;99.90;;;;;;5020093;28;20171;-87
2022/06/21 06:37:52;;;;;;;3.13;2.70;;;17.60;99.90;;;;;;5019267;28;20221;-87
2022/06/21 06:40:27;;;;;;;6.00;2.97;;;17.80;99.90;;;;;;5021343;28;20189;-87
2022/06/21 06:43:32;;;;;;;3.90;2.73;;;17.90;99.90;;;;;;5021173;28;20240;-87
2022/06/21 06:45:58;;;;;;;8.03;2.63;;;17.90;99.90;;;;;;5019694;28;20182;-86
2022/06/21 06:48:30;;;;;;;3.40;2.80;;;17.90;99.90;;;;;;5026618;28;20165;-87
2022/06/21 06:51:18;;;;;;;5.43;2.80;;;18.00;99.90;;;;;;5027356;28;20250;-87
2022/06/21 06:53:51;;;;;;;6.77;3.03;;;18.00;99.90;;;;;;5019419;28;20187;-87
2022/06/21 06:56:26;;;;;;;8.27;3.57;;;18.00;99.90;;;;;;5017536;28;20169;-87
2022/06/21 06:58:59;;;;;;;6.07;3.30;;;18.00;99.90;;;;;;5016121;28;20235;-87
2022/06/21 07:01:38;;;;;;;5.83;2.77;;;18.10;99.90;;;;;;5016249;28;20256;-87
2022/06/21 07:04:06;;;;;;;6.37;3.17;;;18.10;99.90;;;;;;5017655;28;20643;-87
2022/06/21 07:06:32;;;;;;;4.03;3.07;;;18.20;99.90;;;;;;5018528;28;20664;-87
2022/06/21 07:09:09;;;;;;;4.33;3.30;;;18.30;99.90;;;;;;5031945;28;20167;-88
2022/06/21 07:11:35;;;;;;;7.00;3.47;;;18.30;99.90;;;;;;5038575;28;20158;-88
2022/06/21 07:14:01;;;;;;;5.57;3.57;;;18.40;99.90;;;;;;5027887;28;20188;-87
2022/06/21 07:16:28;;;;;;;6.70;3.57;;;18.50;99.90;;;;;;5016891;28;20222;-87
2022/06/21 07:18:57;;;;;;;3.63;2.63;;;18.70;99.90;;;;;;5016612;28;20211;-88
2022/06/21 07:21:23;;;;;;;6.30;3.57;;;18.70;99.90;;;;;;5017134;28;20195;-87
2022/06/21 07:23:52;;;;;;;5.17;3.53;;;18.80;99.90;;;;;;5016837;28;20181;-87
2022/06/21 07:26:33;;;;;;;5.07;3.83;;;18.80;99.90;;;;;;5017928;28;20185;-88
2022/06/21 07:29:19;;;;;;;7.30;4.00;;;18.90;99.90;;;;;;5016491;28;20178;-87
2022/06/21 07:31:51;;;;;;;9.57;3.57;;;19.00;99.90;;;;;;5017294;28;20226;-87
2022/06/21 07:34:32;;;;;;;5.93;3.73;;;19.10;99.90;;;;;;5016657;28;20185;-87
2022/06/21 07:37:03;;;;;;;7.53;4.37;;;19.20;99.90;;;;;;5017260;28;20271;-87
2022/06/21 07:39:56;;;;;;;6.73;3.50;;;19.30;99.90;;;;;;5016748;28;20683;-87
2022/06/21 07:42:28;;;;;;;9.43;4.37;;;19.40;99.90;;;;;;5016937;28;20189;-87
2022/06/21 07:45:00;;;;;;;8.83;4.63;;;19.50;99.90;;;;;;5017655;28;20166;-87
2022/06/21 07:47:32;;;;;;;9.03;4.20;;;19.50;99.90;;;;;;5016490;28;20549;-88
2022/06/21 07:50:09;;;;;;;9.13;4.43;;;19.70;99.90;;;;;;5018506;28;20197;-89
2022/06/21 07:52:53;;;;;;;8.17;4.07;;;19.70;99.90;;;;;;5017329;28;20638;-87
2022/06/21 07:55:30;;;;;;;7.90;4.20;;;19.70;99.90;;;;;;5018074;28;20213;-87
2022/06/21 07:58:04;;;;;;;5.83;4.10;;;19.70;99.90;;;;;;5017260;28;20209;-87
2022/06/21 08:09:24;;;;;;;6.97;3.87;;;20.00;99.90;;;;;;5039054;28;20218;-88
2022/06/21 08:11:52;;;;;;;8.47;4.47;;;20.20;99.90;;;;;;5017977;28;20185;-87
2022/06/21 08:14:18;;;;;;;6.80;4.43;;;20.10;99.90;;;;;;5020759;28;20199;-87
2022/06/21 08:16:51;;;;;;;8.30;4.20;;;20.10;99.90;;;;;;5027383;28;20178;-87
2022/06/21 08:19:26;;;;;;;7.33;3.60;;;20.10;99.90;;;;;;5021474;28;20684;-88
2022/06/21 08:21:58;;;;;;;8.17;4.43;;;20.00;99.90;;;;;;5022488;28;20182;-87
2022/06/21 08:24:54;;;;;;;6.07;4.33;;;19.90;99.90;;;;;;5022116;28;20690;-87
2022/06/21 08:27:58;;;;;;;8.17;4.77;;;19.80;99.90;;;;;;5020698;28;20442;-87
2022/06/21 08:30:40;;;;;;;6.03;4.63;;;19.80;99.90;;;;;;5006605;28;20783;-87
2022/06/21 08:33:10;;;;;;;9.10;4.23;;;19.90;99.90;;;;;;5021045;28;20175;-87
2022/06/21 08:35:44;;;;;;;6.77;4.63;;;20.10;99.90;;;;;;5021973;28;20229;-87
2022/06/21 08:38:18;;;;;;;6.77;4.60;;;20.30;99.90;;;;;;5020375;28;20297;-87
2022/06/21 08:41:06;;;;;;;8.30;4.73;;;20.60;99.90;;;;;;5020160;28;20206;-87
2022/06/21 08:43:53;;;;;;;10.80;4.93;;;20.90;99.90;;;;;;5020067;28;20209;-87
2022/06/21 08:46:40;;;;;;;10.60;4.57;;;21.20;99.90;;;;;;5020125;28;20171;-87
2022/06/21 08:49:38;;;;;;;8.93;4.43;;;21.30;99.90;;;;;;5019475;28;20210;-86
2022/06/21 08:52:27;;;;;;;10.33;4.77;;;21.40;99.90;;;;;;5024080;28;20186;-88
2022/06/21 08:55:07;;;;;;;7.10;4.60;;;21.30;99.90;;;;;;5041428;28;20162;-87
2022/06/21 08:57:51;;;;;;;6.93;4.37;;;21.20;99.90;;;;;;5038423;28;20206;-87
2022/06/21 09:00:33;;;;;;;8.73;4.80;;;21.10;99.90;;;;;;5019151;28;20316;-87
2022/06/21 09:03:01;;;;;;;5.93;5.23;;;21.20;99.90;;;;;;5019629;28;20163;-87
2022/06/21 09:05:59;;;;;;;9.70;5.07;;;21.30;99.90;;;;;;5020933;28;20175;-87
2022/06/21 09:09:04;;;;;;;6.23;4.07;;;21.50;99.90;;;;;;5021083;28;20167;-87
2022/06/21 09:11:35;;;;;;;6.00;4.83;;;21.80;99.90;;;;;;5018964;28;20198;-87
2022/06/21 09:14:10;;;;;;;7.00;4.70;;;21.90;99.90;;;;;;5019502;28;20174;-87
2022/06/21 09:16:51;;;;;;;8.13;4.53;;;21.90;99.90;;;;;;5040678;28;20159;-87
2022/06/21 09:19:44;;;;;;;8.83;4.90;;;22.10;99.90;;;;;;5035571;28;20227;-87
2022/06/21 09:22:22;;;;;;;6.43;4.30;;;22.30;99.90;;;;;;5018892;28;20221;-87
2022/06/21 09:24:58;;;;;;;6.63;4.73;;;22.50;99.90;;;;;;5018731;28;20171;-87
2022/06/21 09:27:40;;;;;;;5.17;4.23;;;22.80;99.90;;;;;;5018833;28;20171;-87
2022/06/21 09:30:18;;;;;;;7.33;4.93;;;22.90;99.90;;;;;;5018867;28;20198;-87
2022/06/21 09:32:59;;;;;;;9.07;4.67;;;23.20;99.90;;;;;;5018669;28;20167;-87
2022/06/21 09:35:46;;;;;;;7.03;4.63;;;23.40;99.90;;;;;;5018436;28;20173;-87
2022/06/21 09:38:18;;;;;;;10.47;5.07;;;23.60;99.90;;;;;;5017967;28;20200;-87
2022/06/21 09:41:04;;;;;;;8.80;5.37;;;23.60;99.90;;;;;;5018478;28;20639;-87
2022/06/21 09:43:38;;;;;;;8.57;5.60;;;23.60;99.90;;;;;;5018267;28;20168;-87
2022/06/21 09:46:25;;;;;;;10.83;5.10;;;23.50;99.90;;;;;;5018561;28;20163;-87
2022/06/21 09:48:57;;;;;;;6.47;4.67;;;23.50;99.90;;;;;;5018890;28;20229;-87
2022/06/21 09:51:34;;;;;;;8.33;4.80;;;23.40;99.90;;;;;;5019523;28;20258;-87
2022/06/21 09:54:32;;;;;;;6.57;4.57;;;23.20;99.90;;;;;;5019547;28;20226;-88
2022/06/21 09:57:29;;;;;;;9.50;4.87;;;23.00;99.90;;;;;;5018828;28;20183;-88
2022/06/21 10:00:10;;;;;;;9.40;5.03;;;22.70;99.90;;;;;;5018348;28;20204;-87
2022/06/21 10:02:55;;;;;;;7.53;4.80;;;22.50;99.90;;;;;;5018638;28;20635;-88
2022/06/21 10:05:28;;;;;;;10.20;4.80;;;22.40;99.90;;;;;;5017909;28;20175;-87
2022/06/21 10:08:11;;;;;;;7.00;4.10;;;22.70;99.90;;;;;;5019553;28;20518;-89
2022/06/21 10:11:02;;;;;;;8.00;5.00;;;23.00;99.90;;;;;;5022068;28;20196;-88
2022/06/21 10:14:19;;;;;;;6.13;4.37;;;23.30;99.90;;;;;;5022273;28;20529;-88
2022/06/21 10:17:00;;;;;;;4.87;4.17;;;23.70;99.90;;;;;;5039303;28;20207;-87
2022/06/21 10:19:36;;;;;;;6.43;4.30;;;24.00;99.90;;;;;;5029558;28;20221;-87
2022/06/21 10:22:24;;;;;;;9.00;4.67;;;24.10;99.90;;;;;;5018261;28;20256;-87
2022/06/21 10:25:20;;;;;;;6.53;4.97;;;23.80;99.90;;;;;;5018748;28;20186;-88
2022/06/21 10:28:03;;;;;;;8.13;4.77;;;23.70;99.90;;;;;;5021004;28;20179;-88
2022/06/21 10:31:03;;;;;;;8.00;4.30;;;23.90;99.90;;;;;;5030551;28;20208;-88
2022/06/21 10:33:44;;;;;;;4.57;3.53;;;24.20;99.90;;;;;;5017833;28;20181;-88
2022/06/21 10:36:47;;;;;;;12.07;4.33;;;24.60;99.90;;;;;;5018204;28;20209;-87
2022/06/21 10:39:39;;;;;;;7.57;5.03;;;25.10;99.90;;;;;;5017168;28;20550;-88
2022/06/21 10:45:00;;;;;;;9.87;4.03;;;25.60;99.90;;;;;;5018366;28;20163;-88
2022/06/21 10:47:48;;;;;;;4.40;4.00;;;25.80;99.90;;;;;;5020656;28;20203;-88
2022/06/21 10:50:45;;;;;;;6.63;4.17;;;26.00;99.90;;;;;;5016458;28;20203;-88
2022/06/21 10:53:25;;;;;;;8.07;3.93;;;26.20;99.90;;;;;;5016787;28;20629;-87
2022/06/21 10:59:20;;;;;;;7.50;4.17;;;26.90;99.90;;;;;;5018744;28;20237;-88
2022/06/21 11:02:12;;;;;;;10.33;4.67;;;26.80;99.90;;;;;;5017279;28;20541;-88
2022/06/21 11:05:03;;;;;;;6.80;4.63;;;26.60;99.90;;;;;;5017942;28;20183;-88
2022/06/21 11:07:45;;;;;;;7.70;4.27;;;26.50;99.90;;;;;;5018007;28;20162;-86
2022/06/21 11:10:19;;;;;;;7.97;3.83;;;26.50;99.90;;;;;;5016718;28;20636;-88
2022/06/21 11:13:04;;;;;;;9.17;4.00;;;26.70;99.90;;;;;;5016722;28;20217;-88
2022/06/21 11:15:48;;;;;;;7.40;4.00;;;26.80;99.90;;;;;;5021848;28;20194;-88
2022/06/21 11:18:26;;;;;;;6.37;3.63;;;26.70;99.90;;;;;;5016134;28;20211;-87
2022/06/21 11:21:06;;;;;;;5.60;3.77;;;26.60;99.90;;;;;;5018107;28;20191;-89
2022/06/21 11:24:11;;;;;;;8.43;4.27;;;26.50;99.90;;;;;;5020205;28;20198;-88
2022/06/21 11:27:18;;;;;;;7.43;4.10;;;26.50;99.90;;;;;;5016566;28;20194;-88
2022/06/21 11:30:03;;;;;;;8.93;4.70;;;26.80;99.90;;;;;;5028668;28;20202;-88
2022/06/21 11:32:31;;;;;;;10.07;3.77;;;27.10;99.90;;;;;;5035154;28;20175;-88
2022/06/21 11:35:07;;;;;;;9.00;4.20;;;27.50;99.90;;;;;;5016293;28;20272;-89
2022/06/21 11:37:41;;;;;;;5.73;3.60;;;27.80;99.90;;;;;;5016628;28;20185;-86
2022/06/21 11:40:25;;;;;;;7.60;3.80;;;27.90;99.90;;;;;;5016008;28;20663;-88
2022/06/21 11:42:57;;;;;;;11.40;4.37;;;28.10;99.90;;;;;;5016896;28;20197;-88
2022/06/21 11:48:55;;;;;;;5.67;4.03;;;28.40;99.90;;;;;;5016664;28;20163;-88
2022/06/21 11:51:58;;;;;;;8.00;4.00;;;28.60;99.90;;;;;;5016562;28;20167;-89
2022/06/21 11:54:39;;;;;;;7.03;3.47;;;28.70;99.90;;;;;;5015408;28;20175;-88
2022/06/21 11:57:25;;;;;;;5.23;3.47;;;28.80;99.90;;;;;;5014992;28;20201;-90
2022/06/21 12:00:00;;;;;;;4.87;4.13;;;28.80;99.90;;;;;;5015225;28;20216;-89
2022/06/21 12:02:58;;;;;;;5.73;3.57;;;28.60;99.90;;;;;;5015423;28;20168;-88
2022/06/21 12:05:39;;;;;;;5.17;3.63;;;28.70;99.90;;;;;;5015310;28;20174;-88
2022/06/21 12:08:34;;;;;;;7.13;4.17;;;28.90;99.90;;;;;;5015659;28;20194;-88
2022/06/21 12:11:13;;;;;;;6.50;3.60;;;29.10;99.90;;;;;;5020625;28;20240;-84
2022/06/21 12:13:45;;;;;;;6.17;3.77;;;29.10;99.90;;;;;;5017716;28;20162;-86
2022/06/21 12:16:20;;;;;;;6.90;3.87;;;29.20;99.90;;;;;;5016137;28;20242;-87
2022/06/21 12:18:53;;;;;;;6.17;3.47;;;29.30;99.90;;;;;;5014942;28;20230;-87
2022/06/21 12:21:25;;;;;;;6.63;4.13;;;29.40;99.90;;;;;;5016820;28;20192;-85
2022/06/21 12:23:57;;;;;;;3.90;3.47;;;29.30;99.90;;;;;;5032229;28;20152;-87
2022/06/21 12:26:26;;;;;;;9.50;3.90;;;29.40;99.90;;;;;;5038556;28;20175;-87
2022/06/21 12:28:55;;;;;;;4.63;3.57;;;29.50;99.90;;;;;;5015628;28;20198;-87
2022/06/21 12:31:28;;;;;;;6.53;3.67;;;29.60;99.90;;;;;;5014330;28;20175;-86
2022/06/21 12:34:13;;;;;;;5.93;4.17;;;29.60;99.90;;;;;;5015833;28;20165;-85
2022/06/21 12:36:47;;;;;;;5.80;3.57;;;29.60;99.90;;;;;;5015593;28;20177;-86
2022/06/21 12:39:16;;;;;;;7.87;4.00;;;29.60;99.90;;;;;;5016717;28;20238;-82
2022/06/21 12:41:56;;;;;;;5.70;4.10;;;29.60;99.90;;;;;;5017862;28;20265;-87
2022/06/21 12:44:42;;;;;;;5.67;3.57;;;29.80;99.90;;;;;;5016784;28;20163;-86
2022/06/21 12:47:21;;;;;;;4.97;3.80;;;30.10;99.90;;;;;;5037270;28;20200;-86
2022/06/21 12:50:24;;;;;;;6.10;4.00;;;30.00;99.90;;;;;;5028505;28;20273;-86
2022/06/21 12:52:58;;;;;;;8.90;3.63;;;29.80;99.90;;;;;;5015420;28;20270;-87
2022/06/21 12:59:24;;;;;;;6.07;3.70;;;29.00;99.90;;;;;;5015902;28;20226;-87
2022/06/21 13:01:52;;;;;;;5.47;3.80;;;29.10;99.90;;;;;;5018265;28;20208;-87
2022/06/21 13:04:42;;;;;;;6.07;4.13;;;28.80;99.90;;;;;;5017854;28;20272;-87
2022/06/21 13:07:29;;;;;;;11.33;4.10;;;28.70;99.90;;;;;;5019599;28;20624;-87
2022/06/21 13:09:57;;;;;;;4.40;3.63;;;28.90;99.90;;;;;;5025209;28;20685;-86
2022/06/21 13:12:54;;;;;;;6.23;4.00;;;29.10;99.90;;;;;;5017304;28;20183;-87
2022/06/21 13:15:29;;;;;;;4.63;3.73;;;29.10;99.90;;;;;;5017009;28;20289;-87
2022/06/21 13:18:03;;;;;;;8.00;3.37;;;28.90;99.90;;;;;;5016773;28;20171;-87
2022/06/21 13:20:40;;;;;;;6.13;3.60;;;29.00;99.90;;;;;;5018311;28;20190;-87
2022/06/21 13:23:06;;;;;;;5.40;3.90;;;29.30;99.90;;;;;;5018182;28;20218;-86
2022/06/21 13:26:03;;;;;;;7.17;4.20;;;29.60;99.90;;;;;;5016985;28;20209;-87
2022/06/21 13:28:56;;;;;;;7.33;4.00;;;29.90;99.90;;;;;;5016828;28;20187;-89
2022/06/21 13:31:40;;;;;;;7.07;3.70;;;30.20;99.90;;;;;;5017023;28;20703;-89
2022/06/21 13:34:38;;;;;;;5.80;3.90;;;30.40;99.90;;;;;;5017307;28;20176;-89
2022/06/21 13:37:16;;;;;;;7.03;4.23;;;30.50;99.90;;;;;;5018297;28;20176;-88
2022/06/21 13:40:06;;;;;;;6.20;4.43;;;30.50;99.90;;;;;;5017066;28;20211;-88
2022/06/21 13:42:37;;;;;;;7.47;3.90;;;30.00;99.90;;;;;;5017254;28;20547;-87
2022/06/21 13:45:18;;;;;;;5.93;4.30;;;29.40;99.90;;;;;;5016879;28;20174;-88
2022/06/21 13:48:05;;;;;;;6.33;3.77;;;29.40;99.90;;;;;;5018586;28;20177;-88
2022/06/21 13:50:44;;;;;;;7.00;4.07;;;29.50;99.90;;;;;;5017839;28;20303;-89
2022/06/21 13:53:27;;;;;;;6.23;3.90;;;29.60;99.90;;;;;;5018330;28;20192;-88
2022/06/21 13:56:01;;;;;;;10.17;4.30;;;29.80;99.90;;;;;;5019139;28;20201;-87
2022/06/21 13:58:37;;;;;;;7.80;4.07;;;29.90;99.90;;;;;;5017321;28;20199;-88
2022/06/21 14:01:21;;;;;;;4.30;3.90;;;29.90;99.90;;;;;;5017149;28;20206;-88